Time;durP1;ratioP1;P1;durP2;ratioP2;P2;SDS_P1;SDS_P2;PMS_P1;PMS_P2;Temp;Humidity;BMP_temperature;BMP_pressure;BME280_temperature;BME280_humidity;BME280_pressure;Samples;Min_cycle;Max_cycle;Signal;HPM_P1;HPM_P2
2022/01/31 00:01:55;;;;;;;8.00;3.97;;;15.90;97.60;;;;;;4163465;28;20223;-75
2022/01/31 00:03:59;;;;;;;8.40;4.47;;;15.90;98.00;;;;;;4165288;28;20634;-74
2022/01/31 00:06:01;;;;;;;9.83;4.90;;;15.90;97.60;;;;;;4162215;28;20248;-75
2022/01/31 00:08:04;;;;;;;8.10;4.47;;;15.90;97.60;;;;;;4163031;28;20212;-75
2022/01/31 00:10:10;;;;;;;9.90;4.68;;;15.90;97.60;;;;;;4160189;28;20224;-75
2022/01/31 00:12:15;;;;;;;8.77;4.30;;;15.90;98.00;;;;;;4161299;28;20224;-77
2022/01/31 00:14:30;;;;;;;8.83;4.23;;;15.90;97.70;;;;;;4163671;28;21551;-75
2022/01/31 00:16:32;;;;;;;8.77;4.00;;;15.90;97.60;;;;;;4163842;28;20224;-75
2022/01/31 00:18:35;;;;;;;8.17;4.27;;;15.90;98.10;;;;;;4162420;28;20220;-75
2022/01/31 00:20:39;;;;;;;9.97;4.00;;;15.90;97.80;;;;;;4165065;28;20246;-75
2022/01/31 00:22:41;;;;;;;8.80;4.33;;;15.90;97.70;;;;;;4161647;28;20618;-75
2022/01/31 00:24:43;;;;;;;7.57;4.20;;;15.90;97.70;;;;;;4161614;28;20228;-75
2022/01/31 00:26:46;;;;;;;9.67;4.20;;;15.90;97.80;;;;;;4160854;28;20266;-77
2022/01/31 00:28:48;;;;;;;8.17;4.03;;;15.90;97.70;;;;;;4162943;28;20747;-74
2022/01/31 00:30:50;;;;;;;9.13;3.30;;;15.90;97.70;;;;;;4163846;28;20251;-77
2022/01/31 00:32:53;;;;;;;7.70;4.00;;;15.90;97.70;;;;;;4165051;28;20641;-77
2022/01/31 00:34:55;;;;;;;9.87;4.23;;;15.90;97.70;;;;;;4164403;28;20212;-77
2022/01/31 00:36:59;;;;;;;8.82;4.00;;;15.90;97.80;;;;;;4162932;28;20294;-77
2022/01/31 00:39:01;;;;;;;8.10;3.90;;;15.90;97.70;;;;;;4164947;28;20301;-77
2022/01/31 00:41:04;;;;;;;9.55;4.15;;;15.90;98.10;;;;;;4161961;28;20728;-77
2022/01/31 00:43:10;;;;;;;10.20;4.50;;;15.90;97.70;;;;;;4162936;28;20268;-77
2022/01/31 00:45:17;;;;;;;9.27;3.80;;;15.90;97.80;;;;;;4150361;28;20239;-77
2022/01/31 00:47:23;;;;;;;9.20;3.85;;;15.90;97.80;;;;;;4157590;28;20627;-77
2022/01/31 00:49:36;;;;;;;10.23;4.03;;;15.80;97.80;;;;;;4161568;28;20734;-77
2022/01/31 00:51:38;;;;;;;8.50;4.25;;;15.90;97.80;;;;;;4162764;28;20212;-77
2022/01/31 00:53:43;;;;;;;10.10;3.80;;;15.80;97.80;;;;;;4164782;28;20220;-76
2022/01/31 00:55:45;;;;;;;9.57;3.83;;;15.90;97.90;;;;;;4161265;28;20258;-77
2022/01/31 00:57:47;;;;;;;10.45;3.65;;;15.90;97.80;;;;;;4164561;28;20216;-76
2022/01/31 00:59:51;;;;;;;10.05;4.05;;;15.80;97.80;;;;;;4162080;28;20640;-76
2022/01/31 01:01:54;;;;;;;10.50;4.17;;;15.80;97.80;;;;;;4162898;28;20631;-76
2022/01/31 01:03:56;;;;;;;8.53;3.83;;;15.80;97.80;;;;;;4161736;28;20275;-76
2022/01/31 01:05:59;;;;;;;9.05;3.97;;;15.80;97.80;;;;;;4162595;28;20258;-76
2022/01/31 01:08:03;;;;;;;8.10;3.70;;;15.80;97.90;;;;;;4163735;28;20265;-76
2022/01/31 01:10:08;;;;;;;9.55;3.63;;;15.80;97.90;;;;;;4164615;28;20216;-77
2022/01/31 01:12:11;;;;;;;8.27;3.73;;;15.90;97.90;;;;;;4162557;28;20216;-76
2022/01/31 01:14:13;;;;;;;9.57;4.33;;;15.80;98.20;;;;;;4161370;28;20223;-76
2022/01/31 01:16:16;;;;;;;8.87;3.60;;;15.80;98.00;;;;;;4163863;28;20221;-76
2022/01/31 01:18:18;;;;;;;7.45;3.95;;;15.80;97.90;;;;;;4161950;28;20278;-77
2022/01/31 01:20:21;;;;;;;9.80;4.15;;;15.80;98.00;;;;;;4163325;28;21006;-76
2022/01/31 01:22:23;;;;;;;9.80;4.15;;;15.80;98.00;;;;;;4163200;28;20224;-76
2022/01/31 01:24:25;;;;;;;8.32;3.80;;;15.80;97.90;;;;;;4164081;28;20213;-76
2022/01/31 01:26:29;;;;;;;8.45;4.50;;;15.90;98.00;;;;;;4163072;28;20266;-75
2022/01/31 01:28:32;;;;;;;8.93;4.05;;;15.90;98.00;;;;;;4160806;28;20219;-74
2022/01/31 01:30:34;;;;;;;8.52;3.53;;;15.80;98.00;;;;;;4161698;28;20739;-74
2022/01/31 01:32:46;;;;;;;10.77;3.72;;;15.80;98.00;;;;;;4164457;28;20217;-74
2022/01/31 01:34:49;;;;;;;7.97;3.80;;;15.80;98.10;;;;;;4159756;28;20217;-75
2022/01/31 01:36:53;;;;;;;8.60;3.80;;;15.80;98.10;;;;;;4161973;28;20322;-74
2022/01/31 01:38:55;;;;;;;7.90;3.67;;;15.80;98.10;;;;;;4161316;28;20626;-74
2022/01/31 01:40:59;;;;;;;8.55;3.92;;;15.80;98.20;;;;;;4162770;28;20267;-74
2022/01/31 01:43:03;;;;;;;10.77;4.07;;;15.70;98.10;;;;;;4162089;28;20228;-74
2022/01/31 01:45:07;;;;;;;9.30;3.70;;;15.80;98.20;;;;;;4164113;28;20286;-75
2022/01/31 01:47:09;;;;;;;9.40;3.70;;;15.80;98.30;;;;;;4163159;28;20240;-74
2022/01/31 01:49:11;;;;;;;8.93;4.00;;;15.80;98.30;;;;;;4166642;28;20228;-75
2022/01/31 01:51:14;;;;;;;10.03;3.80;;;15.80;98.30;;;;;;4157097;28;20259;-74
2022/01/31 01:53:17;;;;;;;8.90;3.40;;;15.80;98.30;;;;;;4163296;28;20271;-75
2022/01/31 01:55:19;;;;;;;9.27;3.80;;;15.80;98.40;;;;;;4164321;28;20283;-75
2022/01/31 01:57:24;;;;;;;8.13;3.40;;;15.80;98.40;;;;;;4163763;28;20248;-75
2022/01/31 01:59:27;;;;;;;8.93;3.57;;;15.80;98.40;;;;;;4163843;28;20216;-75
2022/01/31 02:01:30;;;;;;;6.13;3.23;;;15.80;98.40;;;;;;4166278;28;20275;-74
2022/01/31 02:03:34;;;;;;;6.50;3.67;;;15.80;98.40;;;;;;4164161;28;20221;-75
2022/01/31 02:05:37;;;;;;;6.77;3.70;;;15.80;98.40;;;;;;4163967;28;20634;-74
2022/01/31 02:07:40;;;;;;;8.93;3.67;;;15.80;98.40;;;;;;4162786;28;20283;-75
2022/01/31 02:09:45;;;;;;;8.98;3.38;;;15.70;98.60;;;;;;4164158;28;20271;-75
2022/01/31 02:11:48;;;;;;;9.23;3.73;;;15.70;98.90;;;;;;4164726;28;20337;-75
2022/01/31 02:13:50;;;;;;;8.43;4.00;;;15.80;98.60;;;;;;4163777;28;20616;-75
2022/01/31 02:15:54;;;;;;;8.88;3.83;;;15.70;98.50;;;;;;4165397;28;20639;-75
2022/01/31 02:17:56;;;;;;;7.17;3.60;;;15.70;98.60;;;;;;4163574;28;20618;-74
2022/01/31 02:19:59;;;;;;;8.40;3.10;;;15.70;98.70;;;;;;4163427;28;20216;-74
2022/01/31 02:22:03;;;;;;;8.43;3.47;;;15.80;98.70;;;;;;4164048;28;20224;-74
2022/01/31 02:24:06;;;;;;;6.03;3.20;;;15.70;98.70;;;;;;4163303;28;20224;-74
2022/01/31 02:26:08;;;;;;;7.63;3.63;;;15.70;98.80;;;;;;4163135;28;20236;-75
2022/01/31 02:28:10;;;;;;;9.40;3.63;;;15.70;98.80;;;;;;4163187;28;20732;-75
2022/01/31 02:30:16;;;;;;;8.20;3.57;;;15.70;98.80;;;;;;4165190;28;20247;-74
2022/01/31 02:32:20;;;;;;;7.30;3.20;;;15.70;98.80;;;;;;4165618;28;20263;-74
2022/01/31 02:34:22;;;;;;;7.27;3.40;;;15.70;98.80;;;;;;4165016;28;20224;-74
2022/01/31 02:36:25;;;;;;;6.70;3.23;;;15.70;98.90;;;;;;4163322;28;20306;-74
2022/01/31 02:38:30;;;;;;;6.65;3.22;;;15.70;99.10;;;;;;4164259;28;20212;-74
2022/01/31 02:40:32;;;;;;;11.43;3.43;;;15.70;99.00;;;;;;4163624;28;20217;-74
2022/01/31 02:42:35;;;;;;;7.90;3.30;;;15.70;99.00;;;;;;4163688;28;20220;-76
2022/01/31 02:44:40;;;;;;;6.87;3.33;;;15.70;99.10;;;;;;4165987;28;20274;-76
2022/01/31 02:46:49;;;;;;;10.43;3.67;;;15.70;99.10;;;;;;4165399;28;20286;-76
2022/01/31 02:48:53;;;;;;;7.20;3.07;;;15.70;99.10;;;;;;4160919;28;20254;-76
2022/01/31 02:50:56;;;;;;;7.53;3.30;;;15.70;99.20;;;;;;4160005;28;20213;-76
2022/01/31 02:53:11;;;;;;;6.13;2.87;;;15.70;99.20;;;;;;4163739;28;20563;-76
2022/01/31 02:55:15;;;;;;;7.67;3.00;;;15.70;99.20;;;;;;4162776;28;20220;-76
2022/01/31 02:57:18;;;;;;;5.60;3.00;;;15.70;99.20;;;;;;4163666;28;20266;-76
2022/01/31 02:59:20;;;;;;;8.00;3.10;;;15.70;99.20;;;;;;4162823;28;20216;-76
2022/01/31 03:01:23;;;;;;;7.20;2.80;;;15.70;99.30;;;;;;4163468;28;20220;-76
2022/01/31 03:03:26;;;;;;;5.63;2.53;;;15.70;99.30;;;;;;4163575;28;20220;-76
2022/01/31 03:05:28;;;;;;;6.50;3.17;;;15.70;99.40;;;;;;4159768;28;20257;-76
2022/01/31 03:07:31;;;;;;;6.83;2.97;;;15.70;99.40;;;;;;4165284;28;20285;-76
2022/01/31 03:09:33;;;;;;;7.40;3.27;;;15.70;99.50;;;;;;4163538;28;20225;-76
2022/01/31 03:11:37;;;;;;;6.27;2.77;;;15.70;99.50;;;;;;4165449;28;20265;-76
2022/01/31 03:13:39;;;;;;;7.07;3.13;;;15.70;99.50;;;;;;4163283;28;20607;-76
2022/01/31 03:15:42;;;;;;;5.87;3.10;;;15.70;99.60;;;;;;4162510;28;20224;-76
2022/01/31 03:17:47;;;;;;;5.40;2.43;;;15.70;99.50;;;;;;4163718;28;20669;-76
2022/01/31 03:19:53;;;;;;;5.73;2.87;;;15.70;99.50;;;;;;4162922;28;20327;-76
2022/01/31 03:21:55;;;;;;;4.97;2.60;;;15.70;99.60;;;;;;4164907;28;20224;-76
2022/01/31 03:23:58;;;;;;;3.90;2.40;;;15.70;99.60;;;;;;4163512;28;20212;-76
2022/01/31 03:26:00;;;;;;;6.20;2.73;;;15.70;99.70;;;;;;4163343;28;20213;-76
2022/01/31 03:28:04;;;;;;;5.83;2.77;;;15.70;99.70;;;;;;4155346;28;20696;-76
2022/01/31 03:30:09;;;;;;;5.43;2.57;;;15.70;99.70;;;;;;4161107;28;20220;-76
2022/01/31 03:32:11;;;;;;;6.33;2.97;;;15.70;99.70;;;;;;4163048;28;20217;-76
2022/01/31 03:34:13;;;;;;;5.77;2.87;;;15.70;99.80;;;;;;4164524;28;20635;-76
2022/01/31 03:36:16;;;;;;;7.37;2.50;;;15.70;99.80;;;;;;4162475;28;20216;-76
2022/01/31 03:38:18;;;;;;;6.30;2.88;;;15.70;99.90;;;;;;4162838;28;20209;-76
2022/01/31 03:40:21;;;;;;;4.07;2.40;;;15.70;99.90;;;;;;4163363;28;20246;-76
2022/01/31 03:42:23;;;;;;;4.40;2.37;;;15.70;99.90;;;;;;4162733;28;20270;-76
2022/01/31 03:44:27;;;;;;;4.65;2.35;;;15.70;99.90;;;;;;4162551;28;20669;-76
2022/01/31 03:46:30;;;;;;;6.37;2.53;;;15.70;99.90;;;;;;4163272;28;20262;-76
2022/01/31 03:48:33;;;;;;;4.47;2.60;;;15.70;99.90;;;;;;4160634;28;20235;-76
2022/01/31 03:50:36;;;;;;;5.00;2.30;;;15.70;99.90;;;;;;4160575;28;20263;-76
2022/01/31 03:52:38;;;;;;;4.63;2.30;;;15.70;99.90;;;;;;4163358;28;20266;-76
2022/01/31 03:54:40;;;;;;;5.28;2.50;;;15.70;99.90;;;;;;4162838;28;20645;-76
2022/01/31 03:56:43;;;;;;;5.70;2.50;;;15.70;99.90;;;;;;4162776;28;20270;-75
2022/01/31 03:58:45;;;;;;;6.10;2.65;;;15.70;99.90;;;;;;4163668;28;20622;-76
2022/01/31 04:00:49;;;;;;;5.23;2.53;;;15.70;99.90;;;;;;4163136;28;20233;-76
2022/01/31 04:02:51;;;;;;;6.20;2.70;;;15.70;99.90;;;;;;4163106;28;20280;-76
2022/01/31 04:04:54;;;;;;;4.87;2.93;;;15.70;99.90;;;;;;4163535;28;21072;-76
2022/01/31 04:06:56;;;;;;;6.78;2.85;;;15.70;99.90;;;;;;4161453;28;20290;-76
2022/01/31 04:08:58;;;;;;;5.47;2.57;;;15.70;99.90;;;;;;4157622;28;20269;-76
2022/01/31 04:11:01;;;;;;;6.63;2.40;;;15.70;99.90;;;;;;4163331;28;20224;-77
2022/01/31 04:13:06;;;;;;;5.15;2.20;;;15.70;99.90;;;;;;4162361;28;20220;-76
2022/01/31 04:15:09;;;;;;;7.17;2.73;;;15.70;99.90;;;;;;4164271;28;20605;-76
2022/01/31 04:17:13;;;;;;;5.90;2.33;;;15.70;99.90;;;;;;4161539;28;20212;-76
2022/01/31 04:19:15;;;;;;;7.33;2.43;;;15.70;99.90;;;;;;4162245;28;20904;-76
2022/01/31 04:21:18;;;;;;;6.03;2.80;;;15.70;99.90;;;;;;4162567;28;20228;-76
2022/01/31 04:23:22;;;;;;;4.75;2.30;;;15.60;99.90;;;;;;4162571;28;20220;-76
2022/01/31 04:25:30;;;;;;;4.50;2.43;;;15.60;99.90;;;;;;4162162;28;20212;-76
2022/01/31 04:27:44;;;;;;;4.97;2.40;;;15.70;99.90;;;;;;4163938;28;20237;-76
2022/01/31 04:29:48;;;;;;;5.87;2.60;;;15.70;99.90;;;;;;4162117;28;20682;-76
2022/01/31 04:31:54;;;;;;;5.07;2.10;;;15.60;99.90;;;;;;4162388;28;20271;-76
2022/01/31 04:33:58;;;;;;;4.40;2.20;;;15.60;99.90;;;;;;4162993;28;20220;-76
2022/01/31 04:36:00;;;;;;;6.60;2.40;;;15.60;99.90;;;;;;4162119;28;20220;-76
2022/01/31 04:38:02;;;;;;;5.17;2.27;;;15.60;99.90;;;;;;4163109;28;20212;-76
2022/01/31 04:40:11;;;;;;;4.77;2.17;;;15.60;99.90;;;;;;4162089;28;20216;-76
2022/01/31 04:42:13;;;;;;;4.70;2.03;;;15.60;99.90;;;;;;4159121;28;20664;-76
2022/01/31 04:44:16;;;;;;;4.93;1.90;;;15.60;99.90;;;;;;4163686;28;20617;-75
2022/01/31 04:46:19;;;;;;;5.57;2.40;;;15.60;99.90;;;;;;4162938;28;20631;-76
2022/01/31 04:48:22;;;;;;;8.40;2.97;;;15.60;99.90;;;;;;4158695;28;20240;-76
2022/01/31 04:50:25;;;;;;;5.93;2.57;;;15.60;99.90;;;;;;4162146;28;20213;-76
2022/01/31 04:52:28;;;;;;;4.50;2.30;;;15.60;99.90;;;;;;4163116;28;20645;-76
2022/01/31 04:54:30;;;;;;;5.63;2.10;;;15.60;99.90;;;;;;4161869;28;20241;-76
2022/01/31 04:56:34;;;;;;;5.80;2.17;;;15.60;99.90;;;;;;4161741;28;20212;-76
2022/01/31 04:58:36;;;;;;;5.90;2.27;;;15.60;99.90;;;;;;4158307;28;20286;-76
2022/01/31 05:00:39;;;;;;;5.00;2.20;;;15.60;99.90;;;;;;4162358;28;20219;-76
2022/01/31 05:02:42;;;;;;;4.50;1.90;;;15.60;99.90;;;;;;4162179;28;20623;-76
2022/01/31 05:04:44;;;;;;;6.83;2.37;;;15.60;99.90;;;;;;4162577;28;20224;-76
2022/01/31 05:06:49;;;;;;;5.63;2.13;;;15.50;99.90;;;;;;4162026;28;20618;-76
2022/01/31 05:08:51;;;;;;;5.13;2.30;;;15.50;99.90;;;;;;4161585;28;20232;-76
2022/01/31 05:10:53;;;;;;;6.30;2.20;;;15.60;99.90;;;;;;4163148;28;20216;-76
2022/01/31 05:12:56;;;;;;;4.87;2.17;;;15.50;99.90;;;;;;4161315;28;20294;-76
2022/01/31 05:14:58;;;;;;;7.13;2.43;;;15.50;99.90;;;;;;4161583;28;20657;-76
2022/01/31 05:17:00;;;;;;;4.77;2.00;;;15.50;99.90;;;;;;4162105;28;21059;-76
2022/01/31 05:19:03;;;;;;;6.82;2.20;;;15.50;99.90;;;;;;4151975;28;20343;-76
2022/01/31 05:21:08;;;;;;;5.20;2.10;;;15.60;99.90;;;;;;4162746;28;20275;-76
2022/01/31 05:23:12;;;;;;;6.25;2.03;;;15.60;99.90;;;;;;4161644;28;20649;-76
2022/01/31 05:25:14;;;;;;;4.20;2.10;;;15.50;99.90;;;;;;4161019;28;20275;-76
2022/01/31 05:27:16;;;;;;;5.67;2.30;;;15.50;99.90;;;;;;4162899;28;20274;-76
2022/01/31 05:29:19;;;;;;;5.95;2.15;;;15.60;99.90;;;;;;4165682;28;20221;-76
2022/01/31 05:31:21;;;;;;;7.10;2.28;;;15.60;99.90;;;;;;4165546;28;20973;-76
2022/01/31 05:33:23;;;;;;;5.80;2.10;;;15.60;99.90;;;;;;4165211;28;20266;-76
2022/01/31 05:35:26;;;;;;;5.65;2.05;;;15.60;99.90;;;;;;4165626;28;20247;-76
2022/01/31 05:37:28;;;;;;;4.87;2.03;;;15.60;99.90;;;;;;4165515;28;20643;-76
2022/01/31 05:39:32;;;;;;;5.23;2.20;;;15.50;99.90;;;;;;4165056;28;20258;-76
2022/01/31 05:41:34;;;;;;;5.20;1.80;;;15.50;99.90;;;;;;4164864;28;20264;-76
2022/01/31 05:43:37;;;;;;;5.57;2.20;;;15.50;99.90;;;;;;4166817;28;20283;-75
2022/01/31 05:45:39;;;;;;;5.33;1.87;;;15.50;99.90;;;;;;4164492;28;20221;-76
2022/01/31 05:47:42;;;;;;;4.40;2.10;;;15.50;99.90;;;;;;4161105;28;20731;-76
2022/01/31 05:49:44;;;;;;;5.60;2.10;;;15.50;99.90;;;;;;4162807;28;20228;-76
2022/01/31 05:51:53;;;;;;;8.93;2.30;;;15.50;99.90;;;;;;4165975;28;20220;-76
2022/01/31 05:53:55;;;;;;;5.77;2.40;;;15.40;99.90;;;;;;4165100;28;20220;-76
2022/01/31 05:55:59;;;;;;;7.63;2.60;;;15.10;99.90;;;;;;4159318;28;20283;-75
2022/01/31 05:58:01;;;;;;;4.40;1.87;;;15.00;99.90;;;;;;4165390;28;20212;-76
2022/01/31 06:00:06;;;;;;;4.30;1.90;;;15.00;99.90;;;;;;4164897;28;20735;-76
2022/01/31 06:02:08;;;;;;;4.83;1.90;;;15.10;99.90;;;;;;4163809;28;20220;-76
2022/01/31 06:04:10;;;;;;;5.10;1.97;;;15.30;99.90;;;;;;4164546;28;20221;-76
2022/01/31 06:06:13;;;;;;;4.37;1.97;;;15.40;99.90;;;;;;4164034;28;20216;-76
2022/01/31 06:08:15;;;;;;;4.33;1.80;;;15.60;99.90;;;;;;4162324;28;20299;-76
2022/01/31 06:10:18;;;;;;;5.07;1.80;;;15.70;99.90;;;;;;4155980;28;20256;-76
2022/01/31 06:12:22;;;;;;;3.70;1.90;;;15.80;99.90;;;;;;4150268;28;20616;-76
2022/01/31 06:14:25;;;;;;;3.78;1.60;;;15.80;99.90;;;;;;4164338;28;20270;-76
2022/01/31 06:16:28;;;;;;;5.13;1.80;;;15.80;99.90;;;;;;4166759;28;20220;-76
2022/01/31 06:18:30;;;;;;;3.50;1.80;;;15.90;99.90;;;;;;4163501;28;20213;-76
2022/01/31 06:20:32;;;;;;;4.17;1.63;;;15.90;99.90;;;;;;4165442;28;20263;-76
2022/01/31 06:22:35;;;;;;;6.40;2.10;;;16.00;99.90;;;;;;4160950;28;20255;-76
2022/01/31 06:24:37;;;;;;;4.82;2.13;;;16.00;99.90;;;;;;4164166;28;20216;-76
2022/01/31 06:26:39;;;;;;;5.93;2.10;;;15.90;99.90;;;;;;4164127;28;20278;-76
2022/01/31 06:28:43;;;;;;;5.90;1.80;;;16.00;99.90;;;;;;4163900;28;20615;-76
2022/01/31 06:30:45;;;;;;;6.17;1.93;;;16.00;99.90;;;;;;4164989;28;20678;-76
2022/01/31 06:32:48;;;;;;;6.32;1.92;;;16.00;99.90;;;;;;4163630;28;20228;-76
2022/01/31 06:34:50;;;;;;;4.28;1.60;;;16.10;99.90;;;;;;4163793;28;20275;-74
2022/01/31 06:36:52;;;;;;;5.07;1.80;;;16.10;99.90;;;;;;4157669;28;20244;-74
2022/01/31 06:38:55;;;;;;;4.78;2.05;;;16.10;99.90;;;;;;4163430;28;20221;-74
2022/01/31 06:40:57;;;;;;;5.28;1.70;;;16.00;99.90;;;;;;4160914;28;20220;-74
2022/01/31 06:43:00;;;;;;;4.80;1.70;;;16.10;99.90;;;;;;4163023;28;20212;-74
2022/01/31 06:45:04;;;;;;;5.50;1.67;;;16.10;99.90;;;;;;4162156;28;20259;-74
2022/01/31 06:47:07;;;;;;;4.72;2.00;;;16.10;99.90;;;;;;4163047;28;20220;-74
2022/01/31 06:49:09;;;;;;;5.80;2.40;;;16.10;99.90;;;;;;4163220;28;20982;-74
2022/01/31 06:51:11;;;;;;;4.88;1.92;;;16.10;99.90;;;;;;4163372;28;20209;-74
2022/01/31 06:53:16;;;;;;;6.47;2.00;;;16.20;99.90;;;;;;4163415;28;20216;-74
2022/01/31 06:55:20;;;;;;;3.60;1.50;;;16.20;99.90;;;;;;4163601;28;20554;-75
2022/01/31 06:57:25;;;;;;;4.90;2.03;;;16.20;99.90;;;;;;4161090;28;20217;-74
2022/01/31 06:59:27;;;;;;;5.95;2.00;;;16.20;99.90;;;;;;4163081;28;20273;-74
2022/01/31 07:01:31;;;;;;;5.23;2.03;;;16.20;99.90;;;;;;4162824;28;20220;-76
2022/01/31 07:03:36;;;;;;;5.35;2.30;;;16.20;99.90;;;;;;4164612;28;20217;-74
2022/01/31 07:05:38;;;;;;;6.35;2.60;;;16.20;99.90;;;;;;4162709;28;20258;-74
2022/01/31 07:07:41;;;;;;;5.25;1.83;;;16.20;99.90;;;;;;4163221;28;20278;-74
2022/01/31 07:09:43;;;;;;;5.50;2.25;;;16.30;99.90;;;;;;4163539;28;20244;-74
2022/01/31 07:11:48;;;;;;;4.32;1.85;;;16.30;99.90;;;;;;4163534;28;20217;-74
2022/01/31 07:14:00;;;;;;;5.80;2.10;;;16.30;99.90;;;;;;4160255;28;20213;-74
2022/01/31 07:16:03;;;;;;;8.00;2.27;;;16.30;99.90;;;;;;4161257;28;20212;-74
2022/01/31 07:18:07;;;;;;;6.72;1.90;;;16.30;99.90;;;;;;4163267;28;20220;-74
2022/01/31 07:20:12;;;;;;;5.72;2.20;;;16.30;99.90;;;;;;4163612;28;20262;-74
2022/01/31 07:22:15;;;;;;;6.60;1.70;;;16.30;99.90;;;;;;4162586;28;20239;-74
2022/01/31 07:24:22;;;;;;;6.65;2.05;;;16.40;99.90;;;;;;4163398;28;20665;-74
2022/01/31 07:26:24;;;;;;;7.78;2.28;;;16.30;99.90;;;;;;4164132;28;20239;-74
2022/01/31 07:28:27;;;;;;;5.60;1.90;;;16.40;99.90;;;;;;4162556;28;20208;-74
2022/01/31 07:30:29;;;;;;;6.35;2.50;;;16.40;99.90;;;;;;4162654;28;20263;-74
2022/01/31 07:32:35;;;;;;;6.72;1.77;;;16.40;99.90;;;;;;4162920;28;20254;-74
2022/01/31 07:34:41;;;;;;;7.53;2.47;;;16.40;99.90;;;;;;4162749;28;20221;-74
2022/01/31 07:36:44;;;;;;;7.67;2.03;;;16.40;99.90;;;;;;4164071;28;20298;-74
2022/01/31 07:38:46;;;;;;;7.40;2.33;;;16.40;99.90;;;;;;4163960;28;20657;-74
2022/01/31 07:40:51;;;;;;;6.85;2.47;;;16.40;99.90;;;;;;4162665;28;20263;-76
2022/01/31 07:42:53;;;;;;;5.90;1.92;;;16.40;99.90;;;;;;4163969;28;20224;-76
2022/01/31 07:44:56;;;;;;;6.28;1.90;;;16.40;99.90;;;;;;4155001;28;20213;-76
2022/01/31 07:46:59;;;;;;;6.72;2.03;;;16.40;99.90;;;;;;4162039;28;20217;-76
2022/01/31 07:49:01;;;;;;;6.93;1.97;;;16.50;99.90;;;;;;4155543;28;20299;-76
2022/01/31 07:51:05;;;;;;;5.38;1.98;;;16.50;99.90;;;;;;4162503;28;20212;-76
2022/01/31 07:53:09;;;;;;;5.88;1.70;;;16.50;99.90;;;;;;4162502;28;20670;-76
2022/01/31 07:55:12;;;;;;;7.97;2.42;;;16.50;99.90;;;;;;4164463;28;20274;-76
2022/01/31 07:57:14;;;;;;;6.00;2.05;;;16.40;99.90;;;;;;4161229;28;20272;-77
2022/01/31 07:59:17;;;;;;;7.43;2.72;;;16.50;99.90;;;;;;4159857;28;20221;-76
2022/01/31 08:01:20;;;;;;;6.93;2.28;;;16.40;99.60;;;;;;4163789;28;20275;-76
2022/01/31 08:03:22;;;;;;;6.22;2.10;;;16.50;99.90;;;;;;4156926;28;20243;-78
2022/01/31 08:05:25;;;;;;;7.50;2.15;;;16.50;99.60;;;;;;4157556;28;20224;-77
2022/01/31 08:07:28;;;;;;;4.22;1.85;;;16.70;99.90;;;;;;4165994;28;20212;-77
2022/01/31 08:09:31;;;;;;;6.57;1.85;;;16.90;99.90;;;;;;4162468;28;20236;-77
2022/01/31 08:11:35;;;;;;;5.75;2.13;;;17.20;99.90;;;;;;4160860;28;20212;-75
2022/01/31 08:13:38;;;;;;;6.45;2.08;;;17.30;99.80;;;;;;4164673;28;20220;-76
2022/01/31 08:16:10;;;;;;;7.50;2.15;;;17.40;99.10;;;;;;4162783;28;20263;-76
2022/01/31 08:18:14;;;;;;;7.03;2.05;;;17.40;98.70;;;;;;4156586;28;20223;-76
2022/01/31 08:20:16;;;;;;;5.63;2.30;;;17.50;98.80;;;;;;4162804;28;20743;-75
2022/01/31 08:22:18;;;;;;;4.00;1.90;;;17.50;99.10;;;;;;4162365;28;20224;-77
2022/01/31 08:24:22;;;;;;;4.97;1.85;;;17.60;99.30;;;;;;4158697;28;20255;-80
2022/01/31 08:26:24;;;;;;;4.97;1.75;;;17.50;98.70;;;;;;4152384;28;20269;-77
2022/01/31 08:28:33;;;;;;;9.75;2.05;;;17.70;99.10;;;;;;4158937;28;20221;-77
2022/01/31 08:30:45;;;;;;;7.93;2.00;;;17.80;98.70;;;;;;4158442;28;20800;-75
2022/01/31 08:32:58;;;;;;;8.18;1.70;;;17.90;99.10;;;;;;4156439;28;20637;-76
2022/01/31 08:37:21;;;;;;;6.68;1.75;;;18.10;98.90;;;;;;4164791;28;20651;-78
2022/01/31 08:39:24;;;;;;;7.25;1.88;;;18.10;98.80;;;;;;4161216;28;20220;-80
2022/01/31 08:41:27;;;;;;;6.47;2.13;;;18.10;98.80;;;;;;4163180;28;20630;-77
2022/01/31 08:43:30;;;;;;;6.45;2.05;;;18.20;98.70;;;;;;4163300;28;20220;-76
2022/01/31 08:45:33;;;;;;;7.85;2.58;;;18.20;98.60;;;;;;4159826;28;20213;-76
2022/01/31 08:47:40;;;;;;;6.18;1.77;;;18.20;98.70;;;;;;4158388;28;20228;-77
2022/01/31 08:49:42;;;;;;;5.70;2.05;;;18.30;98.80;;;;;;4160194;28;20635;-77
2022/01/31 08:51:46;;;;;;;7.07;2.30;;;18.30;99.00;;;;;;4156000;28;20691;-76
2022/01/31 08:53:49;;;;;;;8.25;2.30;;;18.20;98.70;;;;;;4157794;28;20220;-75
2022/01/31 08:55:59;;;;;;;5.80;1.92;;;18.30;98.70;;;;;;4163602;28;20216;-77
2022/01/31 08:58:01;;;;;;;3.72;1.92;;;18.30;98.40;;;;;;4166619;28;20253;-75
2022/01/31 09:00:06;;;;;;;7.97;2.10;;;18.40;98.50;;;;;;4148670;28;20311;-76
2022/01/31 09:02:13;;;;;;;7.45;2.10;;;18.50;98.50;;;;;;4163600;28;20229;-76
2022/01/31 09:04:31;;;;;;;5.00;1.80;;;18.50;98.30;;;;;;4167813;28;20239;-77
2022/01/31 09:06:35;;;;;;;4.95;1.92;;;18.50;98.40;;;;;;4167630;28;20260;-76
2022/01/31 09:08:38;;;;;;;6.22;1.67;;;18.50;98.50;;;;;;4169252;28;20270;-75
2022/01/31 09:10:43;;;;;;;5.80;1.80;;;18.50;98.60;;;;;;4166540;28;20235;-76
2022/01/31 09:12:47;;;;;;;6.22;2.42;;;18.50;98.50;;;;;;4165437;28;20279;-76
2022/01/31 09:14:49;;;;;;;6.22;2.05;;;18.50;98.70;;;;;;4166870;28;20283;-76
2022/01/31 09:16:52;;;;;;;5.32;2.08;;;18.70;98.60;;;;;;4171268;28;20253;-75
2022/01/31 09:18:54;;;;;;;4.07;1.90;;;18.80;98.50;;;;;;4167986;28;20310;-75
2022/01/31 09:20:58;;;;;;;6.53;2.28;;;18.80;98.30;;;;;;4166136;28;20219;-76
2022/01/31 09:23:02;;;;;;;5.90;2.30;;;18.80;98.20;;;;;;4165850;28;20212;-76
2022/01/31 09:25:05;;;;;;;6.47;2.35;;;18.80;98.50;;;;;;4166679;28;20224;-76
2022/01/31 09:27:08;;;;;;;5.68;2.22;;;18.90;98.30;;;;;;4166494;28;20236;-75
2022/01/31 09:29:12;;;;;;;5.65;2.10;;;18.90;98.20;;;;;;4169545;28;20270;-76
2022/01/31 09:31:15;;;;;;;5.50;1.92;;;18.90;98.20;;;;;;4164350;28;20240;-77
2022/01/31 09:33:17;;;;;;;7.15;2.17;;;19.00;98.20;;;;;;4166353;28;20606;-74
2022/01/31 09:35:20;;;;;;;4.78;1.83;;;19.00;97.30;;;;;;4168255;28;20225;-74
2022/01/31 09:37:22;;;;;;;11.23;2.35;;;19.00;97.50;;;;;;4166977;28;20612;-75
2022/01/31 09:39:25;;;;;;;5.05;1.98;;;19.00;98.00;;;;;;4164418;28;20227;-78
2022/01/31 09:41:29;;;;;;;6.55;2.00;;;19.00;97.90;;;;;;4168796;28;20259;-76
2022/01/31 09:46:30;;;;;;;4.75;1.77;;;19.10;98.00;;;;;;4130012;28;20654;-77
2022/01/31 09:48:35;;;;;;;5.70;2.10;;;19.20;97.70;;;;;;4127895;28;20225;-76
2022/01/31 09:50:38;;;;;;;7.30;2.22;;;19.00;97.60;;;;;;4133996;28;20233;-77
2022/01/31 09:52:40;;;;;;;4.15;1.98;;;19.10;97.70;;;;;;4167368;28;20217;-78
2022/01/31 09:54:47;;;;;;;6.95;2.17;;;19.10;97.50;;;;;;4165146;28;20227;-79
2022/01/31 09:56:49;;;;;;;9.68;2.28;;;19.00;97.60;;;;;;4164893;28;20220;-79
2022/01/31 09:58:53;;;;;;;6.70;2.20;;;19.00;97.60;;;;;;4166757;28;20212;-78
2022/01/31 10:01:08;;;;;;;5.00;2.03;;;19.10;97.70;;;;;;4169755;28;20299;-76
2022/01/31 10:03:12;;;;;;;6.90;2.05;;;19.20;97.70;;;;;;4166106;28;20680;-75
2022/01/31 10:05:28;;;;;;;6.00;1.88;;;19.30;98.30;;;;;;4167528;28;21654;-76
2022/01/31 10:07:44;;;;;;;11.07;2.28;;;19.30;97.80;;;;;;4166477;28;20215;-75
2022/01/31 10:09:48;;;;;;;11.23;2.50;;;19.30;97.60;;;;;;4162759;28;20267;-77
2022/01/31 10:11:53;;;;;;;9.82;2.63;;;19.30;97.30;;;;;;4166882;28;20216;-78
2022/01/31 10:16:30;;;;;;;12.45;2.13;;;19.10;97.70;;;;;;4165121;28;20204;-77
2022/01/31 10:18:32;;;;;;;17.23;3.13;;;19.30;97.80;;;;;;4163602;28;20266;-75
2022/01/31 10:20:36;;;;;;;12.77;2.42;;;19.40;99.20;;;;;;4163396;28;20214;-77
2022/01/31 10:22:41;;;;;;;11.55;2.60;;;19.40;98.70;;;;;;4164598;28;20263;-79
2022/01/31 10:24:48;;;;;;;10.75;3.03;;;19.50;98.70;;;;;;4163116;28;20647;-78
2022/01/31 10:26:51;;;;;;;8.52;2.30;;;19.40;99.90;;;;;;4166585;28;20354;-78
2022/01/31 10:29:09;;;;;;;6.35;2.22;;;19.40;99.90;;;;;;4168645;28;20224;-76
2022/01/31 10:31:18;;;;;;;9.95;2.40;;;19.40;99.90;;;;;;4162824;28;20857;-78
2022/01/31 10:33:25;;;;;;;8.07;2.70;;;19.50;99.90;;;;;;4163870;28;20257;-77
2022/01/31 10:35:31;;;;;;;9.85;2.80;;;19.50;99.70;;;;;;4169046;28;20217;-81
2022/01/31 10:37:35;;;;;;;8.70;2.20;;;19.60;99.90;;;;;;4159789;28;20298;-79
2022/01/31 10:45:11;;;;;;;11.73;2.55;;;19.60;99.90;;;;;;4161951;28;20193;-80
2022/01/31 10:52:10;;;;;;;8.10;2.13;;;19.70;99.40;;;;;;4160668;28;20224;-75
2022/01/31 10:54:29;;;;;;;11.45;2.58;;;19.60;99.80;;;;;;4159873;28;20223;-79
2022/01/31 10:56:39;;;;;;;7.10;2.78;;;19.60;99.40;;;;;;4149046;28;20264;-82
2022/01/31 10:58:55;;;;;;;6.10;1.85;;;19.60;98.90;;;;;;4150349;28;20262;-78
2022/01/31 11:01:12;;;;;;;9.38;2.60;;;19.60;98.90;;;;;;4165041;28;20631;-78
2022/01/31 11:03:33;;;;;;;7.95;2.88;;;19.60;98.70;;;;;;4166085;28;20266;-75